Aviation Digital Data Service (ADDS)

Output produced by METARs form (0040 UTC 26 July 2016)
found at http://aviationweather.gov/adds/metars/
 
KACK 252326Z 2600/2624 19012KT P6SM VCSH FEW008 BKN120 
     FM260200 20011KT 2SM BR VCSH BKN008 
     FM260400 21010KT 1SM BR BKN008 
     FM260600 23010KT 3/4SM BR BKN003 
     FM261100 26009KT 5SM BR SCT008 
     FM261200 27009KT P6SM FEW008 
     FM261600 25010KT P6SM FEW200